createdAt,value
2019-05-12T00:00:34.464Z,16.90
2019-05-12T00:03:03.319Z,19.40
2019-05-12T00:05:32.188Z,16.07
2019-05-12T00:08:01.047Z,15.38
2019-05-12T00:10:29.913Z,22.37
2019-05-12T00:12:58.771Z,28.47
2019-05-12T00:15:28.123Z,17.30
2019-05-12T00:17:58.609Z,14.10
2019-05-12T00:20:28.495Z,16.85
2019-05-12T00:22:59.223Z,14.95
2019-05-12T00:25:28.432Z,20.27
2019-05-12T00:27:58.630Z,16.93
2019-05-12T00:30:41.758Z,14.60
2019-05-12T00:33:10.615Z,15.08
2019-05-12T00:35:39.695Z,18.30
2019-05-12T00:38:09.406Z,15.23
2019-05-12T00:40:39.489Z,13.35
2019-05-12T00:43:09.214Z,15.98
2019-05-12T00:45:39.019Z,23.27
2019-05-12T00:48:09.247Z,14.00
2019-05-12T00:50:39.425Z,17.25
2019-05-12T00:53:09.352Z,19.25
2019-05-12T00:55:38.581Z,18.00
2019-05-12T00:58:08.488Z,22.42
2019-05-12T01:00:40.625Z,17.07
2019-05-12T01:03:09.033Z,18.85
2019-05-12T01:05:38.577Z,18.27
2019-05-12T01:08:09.240Z,22.62
2019-05-12T01:10:39.131Z,15.88
2019-05-12T01:13:08.657Z,16.42
2019-05-12T01:15:38.188Z,15.40
2019-05-12T01:18:09.423Z,14.70
2019-05-12T01:20:39.134Z,17.95
2019-05-12T01:23:08.917Z,22.13
2019-05-12T01:25:39.512Z,16.10
2019-05-12T01:28:09.263Z,17.02
2019-05-12T01:30:39.115Z,17.37
2019-05-12T01:33:08.899Z,25.40
2019-05-12T01:35:39.037Z,14.68
2019-05-12T01:38:08.470Z,15.53
2019-05-12T01:40:39.204Z,19.73
2019-05-12T01:43:08.722Z,17.27
2019-05-12T01:45:39.353Z,23.70
2019-05-12T01:48:09.125Z,24.23
2019-05-12T01:50:38.843Z,20.05
2019-05-12T01:53:08.526Z,18.12
2019-05-12T01:55:38.857Z,23.92
2019-05-12T01:58:08.878Z,24.67
2019-05-12T02:00:38.764Z,24.12
2019-05-12T02:03:08.974Z,23.57
2019-05-12T02:05:40.398Z,23.92
2019-05-12T02:08:10.894Z,22.50
2019-05-12T02:10:39.759Z,28.70
2019-05-12T02:13:08.624Z,25.68
2019-05-12T02:15:38.338Z,23.27
2019-05-12T02:18:09.175Z,21.55
2019-05-12T02:20:38.289Z,21.70
2019-05-12T02:23:08.962Z,27.80
2019-05-12T02:25:38.295Z,21.23
2019-05-12T02:28:09.371Z,23.38
2019-05-12T02:30:41.510Z,19.00
2019-05-12T02:33:08.448Z,25.82
2019-05-12T02:35:37.308Z,21.05
2019-05-12T02:38:06.180Z,22.80
2019-05-12T02:40:35.291Z,18.15
2019-05-12T02:43:05.751Z,15.95
2019-05-12T02:45:35.944Z,20.10
2019-05-12T02:48:05.612Z,17.40
2019-05-12T02:50:36.201Z,21.07
2019-05-12T02:53:05.967Z,18.07
2019-05-12T02:55:35.606Z,21.35
2019-05-12T02:58:05.919Z,15.55
2019-05-12T03:00:36.107Z,19.30
2019-05-12T03:03:05.947Z,18.52
2019-05-12T03:05:35.416Z,18.45
2019-05-12T03:08:04.986Z,13.93
2019-05-12T03:10:35.525Z,16.27
2019-05-12T03:13:04.703Z,13.98
2019-05-12T03:15:36.555Z,15.28
2019-05-12T03:18:06.265Z,15.72
2019-05-12T03:20:36.252Z,22.77
2019-05-12T03:23:06.603Z,15.08
2019-05-12T03:25:37.119Z,13.65
2019-05-12T03:28:09.280Z,12.43
2019-05-12T03:30:39.889Z,13.15
2019-05-12T03:33:11.129Z,12.93
2019-05-12T03:35:43.754Z,14.98
2019-05-12T03:38:09.201Z,12.88
2019-05-12T03:40:38.909Z,12.60
2019-05-12T03:43:08.115Z,19.30
2019-05-12T03:45:36.990Z,13.53
2019-05-12T03:48:05.930Z,17.77
2019-05-12T03:50:35.514Z,17.15
2019-05-12T03:53:10.204Z,16.85
2019-05-12T03:55:41.391Z,13.28
2019-05-12T03:58:06.479Z,14.28
2019-05-12T04:00:36.360Z,18.77
2019-05-12T04:03:05.714Z,15.88
2019-05-12T04:05:37.522Z,16.35
2019-05-12T04:08:06.806Z,17.67
2019-05-12T04:10:36.694Z,16.77
2019-05-12T04:13:06.185Z,12.28
2019-05-12T04:15:36.540Z,13.80
2019-05-12T04:18:06.454Z,14.65
2019-05-12T04:20:36.425Z,20.72
2019-05-12T04:23:06.575Z,17.40
2019-05-12T04:25:50.879Z,12.47
2019-05-12T04:28:06.596Z,14.83
2019-05-12T04:30:36.071Z,16.60
2019-05-12T04:33:05.599Z,11.95
2019-05-12T04:35:35.728Z,13.65
2019-05-12T04:38:05.307Z,11.20
2019-05-12T04:40:35.932Z,10.90
2019-05-12T04:43:06.196Z,18.20
2019-05-12T04:45:35.605Z,12.03
2019-05-12T04:48:05.769Z,11.50
2019-05-12T04:50:36.025Z,7.85
2019-05-12T04:53:06.338Z,7.90
2019-05-12T04:55:36.312Z,12.50
2019-05-12T04:58:05.850Z,18.23
2019-05-12T05:00:35.718Z,10.23
2019-05-12T05:03:05.674Z,11.00
2019-05-12T05:05:35.576Z,9.25
2019-05-12T05:08:05.321Z,11.97
2019-05-12T05:10:34.781Z,11.48
2019-05-12T05:13:05.291Z,10.35
2019-05-12T05:15:35.267Z,9.88
2019-05-12T05:18:06.266Z,7.87
2019-05-12T05:20:35.087Z,11.78
2019-05-12T05:23:04.304Z,11.05
2019-05-12T05:25:34.630Z,12.40
2019-05-12T05:28:04.326Z,9.60
2019-05-12T05:30:34.126Z,8.70
2019-05-12T05:33:04.550Z,9.20
2019-05-12T05:35:39.216Z,9.73
2019-05-12T05:38:05.429Z,9.80
2019-05-12T05:40:35.697Z,6.37
2019-05-12T05:43:12.421Z,8.35
2019-05-12T05:45:35.717Z,9.15
2019-05-12T05:48:09.433Z,13.45
2019-05-12T05:50:35.189Z,8.63
2019-05-12T05:53:09.286Z,8.05
2019-05-12T05:55:35.647Z,8.33
2019-05-12T05:58:10.028Z,10.48
2019-05-12T06:00:38.793Z,9.28
2019-05-12T06:03:06.142Z,9.33
2019-05-12T06:05:38.539Z,10.75
2019-05-12T06:08:09.410Z,7.30
2019-05-12T06:10:40.521Z,8.88
2019-05-12T06:13:08.975Z,9.75
2019-05-12T06:15:40.564Z,10.68
2019-05-12T06:18:08.395Z,10.78
2019-05-12T06:20:38.255Z,8.23
2019-05-12T06:23:07.275Z,8.90
2019-05-12T06:25:46.206Z,6.17
2019-05-12T06:28:08.976Z,9.55
2019-05-12T06:30:44.494Z,7.95
2019-05-12T06:33:07.775Z,8.00
2019-05-12T06:35:42.146Z,8.00
2019-05-12T06:38:07.414Z,5.85
2019-05-12T06:40:40.811Z,10.48
2019-05-12T06:43:06.826Z,6.10
2019-05-12T06:45:42.100Z,6.30
2019-05-12T06:48:07.310Z,7.85
2019-05-12T06:50:39.083Z,5.72
2019-05-12T06:53:06.948Z,6.45
2019-05-12T06:55:39.118Z,7.70
2019-05-12T06:58:06.355Z,6.78
2019-05-12T07:00:35.495Z,6.72
2019-05-12T07:03:05.139Z,5.20
2019-05-12T07:05:38.473Z,6.47
2019-05-12T07:08:04.628Z,9.18
2019-05-12T07:10:42.136Z,3.98
2019-05-12T07:13:05.510Z,5.47
2019-05-12T07:15:40.007Z,7.70
2019-05-12T07:18:17.855Z,6.22
2019-05-12T07:20:47.047Z,8.38
2019-05-12T07:23:19.742Z,5.40
2019-05-12T07:25:46.459Z,5.00
2019-05-12T07:28:15.605Z,6.05
2019-05-12T07:30:44.460Z,5.25
2019-05-12T07:33:14.677Z,6.83
2019-05-12T07:35:44.597Z,6.28
2019-05-12T07:38:20.827Z,4.47
2019-05-12T07:40:45.443Z,7.33
2019-05-12T07:43:18.561Z,5.70
2019-05-12T07:45:45.837Z,5.25
2019-05-12T07:48:14.716Z,5.12
2019-05-12T07:50:43.649Z,8.78
2019-05-12T07:53:14.522Z,5.03
2019-05-12T07:55:47.595Z,5.53
2019-05-12T07:58:18.752Z,7.83
2019-05-12T08:00:45.275Z,6.37
2019-05-12T08:03:18.996Z,4.83
2019-05-12T08:05:44.740Z,4.72
2019-05-12T08:08:14.550Z,8.65
2019-05-12T08:10:44.336Z,6.35
2019-05-12T08:13:14.821Z,5.58
2019-05-12T08:15:45.763Z,7.45
2019-05-12T08:18:14.543Z,7.50
2019-05-12T08:20:43.682Z,6.55
2019-05-12T08:23:14.080Z,6.37
2019-05-12T08:25:43.737Z,5.40
2019-05-12T08:28:18.325Z,5.03
2019-05-12T08:30:47.541Z,3.90
2019-05-12T08:33:14.599Z,6.30
2019-05-12T08:35:44.042Z,5.70
2019-05-12T08:38:14.546Z,2.92
2019-05-12T08:40:50.869Z,5.28
2019-05-12T08:43:15.055Z,5.03
2019-05-12T08:45:44.447Z,4.97
2019-05-12T08:48:21.532Z,5.78
2019-05-12T08:50:46.189Z,4.67
2019-05-12T08:53:20.451Z,4.58
2019-05-12T08:55:45.009Z,4.05
2019-05-12T08:58:29.830Z,4.47
2019-05-12T09:00:50.206Z,8.33
2019-05-12T09:03:14.993Z,7.72
2019-05-12T09:05:44.651Z,4.97
2019-05-12T09:08:14.049Z,5.45
2019-05-12T09:10:45.146Z,6.33
2019-05-12T09:13:14.367Z,4.53
2019-05-12T09:15:43.889Z,5.42
2019-05-12T09:18:14.777Z,6.60
2019-05-12T09:20:51.248Z,3.65
2019-05-12T09:23:14.231Z,2.50
2019-05-12T09:25:45.344Z,7.47
2019-05-12T09:28:13.954Z,3.72
2019-05-12T09:30:48.080Z,9.00
2019-05-12T09:33:14.145Z,5.37
2019-05-12T09:35:43.978Z,7.17
2019-05-12T09:38:21.421Z,3.70
2019-05-12T09:40:43.928Z,6.10
2019-05-12T09:43:13.693Z,6.30
2019-05-12T09:45:52.099Z,4.65
2019-05-12T09:48:14.211Z,8.55
2019-05-12T09:50:46.261Z,5.15
2019-05-12T09:53:14.598Z,5.55
2019-05-12T09:55:44.435Z,5.25
2019-05-12T09:58:22.757Z,6.50
2019-05-12T10:00:44.201Z,5.58
2019-05-12T10:03:13.968Z,5.33
2019-05-12T10:05:44.156Z,4.65
2019-05-12T10:08:14.040Z,4.30
2019-05-12T10:10:46.752Z,4.90
2019-05-12T10:13:14.631Z,5.22
2019-05-12T10:15:43.491Z,4.65
2019-05-12T10:18:14.307Z,4.42
2019-05-12T10:20:44.127Z,3.42
2019-05-12T10:23:17.360Z,3.70
2019-05-12T10:25:44.647Z,5.20
2019-05-12T10:28:16.185Z,5.15
2019-05-12T10:30:47.267Z,10.60
2019-05-12T10:33:15.618Z,6.03
2019-05-12T10:35:44.463Z,5.80
2019-05-12T10:38:13.895Z,4.42
2019-05-12T10:40:44.398Z,3.30
2019-05-12T10:43:13.307Z,4.90
2019-05-12T10:45:44.172Z,5.05
2019-05-12T10:48:14.157Z,6.35
2019-05-12T10:50:44.245Z,6.22
2019-05-12T10:53:15.614Z,4.80
2019-05-12T10:55:44.194Z,3.87
2019-05-12T10:58:14.531Z,4.03
2019-05-12T11:00:44.355Z,4.75
2019-05-12T11:03:15.576Z,4.53
2019-05-12T11:05:44.165Z,4.40
2019-05-12T11:08:14.297Z,5.05
2019-05-12T11:10:44.223Z,4.10
2019-05-12T11:13:14.195Z,5.65
2019-05-12T11:15:46.239Z,5.15
2019-05-12T11:18:20.693Z,4.33
2019-05-12T11:20:45.983Z,5.80
2019-05-12T11:23:14.834Z,5.03
2019-05-12T11:25:44.083Z,3.55
2019-05-12T11:28:14.050Z,3.95
2019-05-12T11:30:43.782Z,6.03
2019-05-12T11:33:13.006Z,4.00
2019-05-12T11:35:43.512Z,5.97
2019-05-12T11:38:13.470Z,4.72
2019-05-12T11:40:43.760Z,4.97
2019-05-12T11:43:14.312Z,2.47
2019-05-12T11:45:44.213Z,6.25
2019-05-12T11:48:14.363Z,2.08
2019-05-12T11:50:47.794Z,2.83
2019-05-12T11:53:14.047Z,2.95
2019-05-12T11:55:44.403Z,3.77
2019-05-12T11:58:13.262Z,4.75
2019-05-12T12:00:44.132Z,4.53
2019-05-12T12:03:17.874Z,3.90
2019-05-12T12:05:44.383Z,3.42
2019-05-12T12:08:14.463Z,3.52
2019-05-12T12:10:43.546Z,2.33
2019-05-12T12:13:14.086Z,3.72
2019-05-12T12:15:43.136Z,3.75
2019-05-12T12:18:13.624Z,3.62
2019-05-12T12:20:44.258Z,2.83
2019-05-12T12:23:14.059Z,2.83
2019-05-12T12:25:48.160Z,3.33
2019-05-12T12:28:13.939Z,3.27
2019-05-12T12:30:47.348Z,1.95
2019-05-12T12:33:14.308Z,5.47
2019-05-12T12:35:44.536Z,5.42
2019-05-12T12:38:14.229Z,2.80
2019-05-12T12:40:44.146Z,3.67
2019-05-12T12:43:13.704Z,5.87
2019-05-12T12:45:47.303Z,3.37
2019-05-12T12:48:19.413Z,2.73
2019-05-12T12:50:46.938Z,2.17
2019-05-12T12:53:15.779Z,3.20
2019-05-12T12:55:45.250Z,2.85
2019-05-12T12:58:14.239Z,3.22
2019-05-12T13:00:47.806Z,4.22
2019-05-12T13:03:14.341Z,5.37
2019-05-12T13:05:43.888Z,3.62
2019-05-12T13:08:12.940Z,2.60
2019-05-12T13:10:49.477Z,1.98
2019-05-12T13:13:14.199Z,2.58
2019-05-12T13:15:44.422Z,2.95
2019-05-12T13:18:17.967Z,2.55
2019-05-12T13:20:44.055Z,2.17
2019-05-12T13:23:14.147Z,1.77
2019-05-12T13:25:48.435Z,3.02
2019-05-12T13:28:18.796Z,2.30
2019-05-12T13:30:48.858Z,4.33
2019-05-12T13:33:18.277Z,2.40
2019-05-12T13:35:50.140Z,4.12
2019-05-12T13:38:17.063Z,2.25
2019-05-12T13:40:45.919Z,3.85
2019-05-12T13:43:19.353Z,5.22
2019-05-12T13:45:45.343Z,1.75
2019-05-12T13:48:15.790Z,2.17
2019-05-12T13:50:44.739Z,3.55
2019-05-12T13:53:14.144Z,2.33
2019-05-12T13:55:45.449Z,1.98
2019-05-12T13:58:13.713Z,2.98
2019-05-12T14:00:50.773Z,2.55
2019-05-12T14:03:14.040Z,4.50
2019-05-12T14:05:50.609Z,2.98
2019-05-12T14:08:14.593Z,2.10
2019-05-12T14:10:53.248Z,3.00
2019-05-12T14:13:14.503Z,1.60
2019-05-12T14:15:44.464Z,2.33
2019-05-12T14:18:18.503Z,1.98
2019-05-12T14:20:45.208Z,2.80
2019-05-12T14:23:14.777Z,3.45
2019-05-12T14:25:44.867Z,2.27
2019-05-12T14:28:16.587Z,4.40
2019-05-12T14:30:49.632Z,4.80
2019-05-12T14:33:18.141Z,2.50
2019-05-12T14:35:46.089Z,3.12
2019-05-12T14:38:19.303Z,3.92
2019-05-12T14:40:45.611Z,2.90
2019-05-12T14:43:16.902Z,3.17
2019-05-12T14:45:45.083Z,2.12
2019-05-12T14:48:13.946Z,3.17
2019-05-12T14:50:44.159Z,2.20
2019-05-12T14:53:14.441Z,2.80
2019-05-12T14:55:43.531Z,2.35
2019-05-12T14:58:18.200Z,2.12
2019-05-12T15:00:44.620Z,3.05
2019-05-12T15:03:16.331Z,4.15
2019-05-12T15:05:47.278Z,2.33
2019-05-12T15:08:20.272Z,3.60
2019-05-12T15:10:46.576Z,2.45
2019-05-12T15:13:15.432Z,2.65
2019-05-12T15:15:44.279Z,2.60
2019-05-12T15:18:15.936Z,4.25
2019-05-12T15:20:49.756Z,1.37
2019-05-12T15:23:14.580Z,2.05
2019-05-12T15:25:43.732Z,1.77
2019-05-12T15:28:14.550Z,2.72
2019-05-12T15:30:43.595Z,2.65
2019-05-12T15:33:13.855Z,1.92
2019-05-12T15:35:43.913Z,3.60
2019-05-12T15:38:14.882Z,5.20
2019-05-12T15:40:43.863Z,2.25
2019-05-12T15:43:13.829Z,2.52
2019-05-12T15:45:43.633Z,1.35
2019-05-12T15:48:14.592Z,1.20
2019-05-12T15:50:45.682Z,2.02
2019-05-12T15:53:21.775Z,2.87
2019-05-12T15:55:44.359Z,2.37
2019-05-12T15:58:14.197Z,1.87
2019-05-12T16:00:43.829Z,1.55
2019-05-12T16:03:13.228Z,2.35
2019-05-12T16:05:44.391Z,2.42
2019-05-12T16:08:14.337Z,2.15
2019-05-12T16:10:43.851Z,3.27
2019-05-12T16:13:15.459Z,1.92
2019-05-12T16:15:43.883Z,5.90
2019-05-12T16:18:14.506Z,3.25
2019-05-12T16:20:44.380Z,5.58
2019-05-12T16:23:15.487Z,3.00
2019-05-12T16:25:43.819Z,3.22
2019-05-12T16:28:17.591Z,0.90
2019-05-12T16:30:43.929Z,1.32
2019-05-12T16:33:20.502Z,5.62
2019-05-12T16:35:44.736Z,2.40
2019-05-12T16:38:18.052Z,1.70
2019-05-12T16:40:45.538Z,3.50
2019-05-12T16:43:14.968Z,3.95
2019-05-12T16:45:43.822Z,5.83
2019-05-12T16:48:28.444Z,4.33
2019-05-12T16:50:43.826Z,2.75
2019-05-12T16:53:21.342Z,1.20
2019-05-12T16:55:46.610Z,2.05
2019-05-12T16:58:14.839Z,1.00
2019-05-12T17:00:45.125Z,3.80
2019-05-12T17:03:14.572Z,1.25
2019-05-12T17:05:44.775Z,2.52
2019-05-12T17:08:14.017Z,2.52
2019-05-12T17:10:49.659Z,1.17
2019-05-12T17:13:15.979Z,2.17
2019-05-12T17:15:48.839Z,3.70
2019-05-12T17:18:14.615Z,3.80
2019-05-12T17:20:46.973Z,4.20
2019-05-12T17:23:14.075Z,2.98
2019-05-12T17:25:42.944Z,4.75
2019-05-12T17:28:13.321Z,1.72
2019-05-12T17:30:43.649Z,1.82
2019-05-12T17:33:22.466Z,1.92
2019-05-12T17:35:44.712Z,2.58
2019-05-12T17:38:19.758Z,1.70
2019-05-12T17:40:44.317Z,4.20
2019-05-12T17:43:13.639Z,2.33
2019-05-12T17:45:44.336Z,1.12
2019-05-12T17:48:14.204Z,1.95
2019-05-12T17:50:46.670Z,1.22
2019-05-12T17:53:17.801Z,2.25
2019-05-12T17:55:50.783Z,4.62
2019-05-12T17:58:16.313Z,1.85
2019-05-12T18:00:47.651Z,3.02
2019-05-12T18:03:21.925Z,2.42
2019-05-12T18:05:47.958Z,2.27
2019-05-12T18:08:16.835Z,3.37
2019-05-12T18:10:47.967Z,2.65
2019-05-12T18:13:23.041Z,3.15
2019-05-12T18:15:46.872Z,4.35
2019-05-12T18:18:17.538Z,3.20
2019-05-12T18:20:46.289Z,2.95
2019-05-12T18:23:19.755Z,2.35
2019-05-12T18:25:45.699Z,1.98
2019-05-12T18:28:14.547Z,4.00
2019-05-12T18:30:43.398Z,2.90
2019-05-12T18:33:13.774Z,4.83
2019-05-12T18:35:43.987Z,5.62
2019-05-12T18:38:18.189Z,7.15
2019-05-12T18:40:43.467Z,6.22
2019-05-12T18:43:14.164Z,5.62
2019-05-12T18:45:42.884Z,4.25
2019-05-12T18:48:19.869Z,4.90
2019-05-12T18:50:44.158Z,5.28
2019-05-12T18:53:14.463Z,5.53
2019-05-12T18:55:44.199Z,4.55
2019-05-12T18:58:14.974Z,2.52
2019-05-12T19:00:43.987Z,4.08
2019-05-12T19:03:14.056Z,2.08
2019-05-12T19:05:43.732Z,2.15
2019-05-12T19:08:14.009Z,4.12
2019-05-12T19:10:44.291Z,3.65
2019-05-12T19:13:13.707Z,4.00
2019-05-12T19:15:44.096Z,2.85
2019-05-12T19:18:17.890Z,2.33
2019-05-12T19:20:43.624Z,3.35
2019-05-12T19:23:14.244Z,4.03
2019-05-12T19:25:43.721Z,3.75
2019-05-12T19:28:13.632Z,3.98
2019-05-12T19:30:43.742Z,7.62
2019-05-12T19:33:13.559Z,4.53
2019-05-12T19:35:42.820Z,4.47
2019-05-12T19:38:15.165Z,1.57
2019-05-12T19:40:47.307Z,3.30
2019-05-12T19:43:14.250Z,2.62
2019-05-12T19:45:43.590Z,2.58
2019-05-12T19:48:23.597Z,5.17
2019-05-12T19:50:44.583Z,3.83
2019-05-12T19:53:13.821Z,5.12
2019-05-12T19:55:44.322Z,2.15
2019-05-12T19:58:13.490Z,4.15
2019-05-12T20:00:43.826Z,2.80
2019-05-12T20:03:13.854Z,4.05
2019-05-12T20:05:43.452Z,3.55
2019-05-12T20:08:13.680Z,2.95
2019-05-12T20:10:47.771Z,4.80
2019-05-12T20:13:14.012Z,3.42
2019-05-12T20:15:43.725Z,2.05
2019-05-12T20:18:14.702Z,4.72
2019-05-12T20:20:44.936Z,3.12
2019-05-12T20:23:14.278Z,3.17
2019-05-12T20:25:44.219Z,1.50
2019-05-12T20:28:14.393Z,3.60
2019-05-12T20:30:43.960Z,1.87
2019-05-12T20:33:13.801Z,2.52
2019-05-12T20:35:47.421Z,2.22
2019-05-12T20:38:14.833Z,3.83
2019-05-12T20:40:43.992Z,2.00
2019-05-12T20:43:14.763Z,3.58
2019-05-12T20:45:45.712Z,3.15
2019-05-12T20:48:19.658Z,2.72
2019-05-12T20:50:45.428Z,3.15
2019-05-12T20:53:14.460Z,3.20
2019-05-12T20:55:44.319Z,2.20
2019-05-12T20:58:13.694Z,2.33
2019-05-12T21:00:45.556Z,2.72
2019-05-12T21:03:13.780Z,3.02
2019-05-12T21:05:43.991Z,3.95
2019-05-12T21:08:15.299Z,2.08
2019-05-12T21:10:43.887Z,4.15
2019-05-12T21:13:14.671Z,3.50
2019-05-12T21:15:45.842Z,3.35
2019-05-12T21:18:14.833Z,2.55
2019-05-12T21:20:46.311Z,2.92
2019-05-12T21:23:14.564Z,6.05
2019-05-12T21:25:51.964Z,6.55
2019-05-12T21:28:14.829Z,2.80
2019-05-12T21:30:48.121Z,3.33
2019-05-12T21:33:15.434Z,3.10
2019-05-12T21:35:46.077Z,4.47
2019-05-12T21:38:18.947Z,4.17
2019-05-12T21:40:46.394Z,2.22
2019-05-12T21:43:15.488Z,2.58
2019-05-12T21:45:44.343Z,2.50
2019-05-12T21:48:15.201Z,7.95
2019-05-12T21:50:44.299Z,2.30
2019-05-12T21:53:17.436Z,3.58
2019-05-12T21:55:44.427Z,3.10
2019-05-12T21:58:15.287Z,3.27
2019-05-12T22:00:50.403Z,2.83
2019-05-12T22:03:17.916Z,5.78
2019-05-12T22:05:51.425Z,3.58
2019-05-12T22:08:22.157Z,3.95
2019-05-12T22:10:49.515Z,2.50
2019-05-12T22:13:18.440Z,2.40
2019-05-12T22:15:51.416Z,3.12
2019-05-12T22:18:17.861Z,5.58
2019-05-12T22:20:52.376Z,3.72
2019-05-12T22:23:17.334Z,3.83
2019-05-12T22:25:49.133Z,4.10
2019-05-12T22:28:16.746Z,2.42
2019-05-12T22:30:45.607Z,2.90
2019-05-12T22:33:14.693Z,4.47
2019-05-12T22:35:44.478Z,4.17
2019-05-12T22:38:16.602Z,4.28
2019-05-12T22:40:44.013Z,3.47
2019-05-12T22:43:14.200Z,1.98
2019-05-12T22:45:44.277Z,3.90
2019-05-12T22:48:13.825Z,3.77
2019-05-12T22:50:43.665Z,3.40
2019-05-12T22:53:13.370Z,10.70
2019-05-12T22:55:42.455Z,3.42
2019-05-12T22:58:18.255Z,9.23
2019-05-12T23:00:44.303Z,3.25
2019-05-12T23:03:14.972Z,4.58
2019-05-12T23:05:43.355Z,4.47
2019-05-12T23:08:14.107Z,3.15
2019-05-12T23:10:51.290Z,4.45
2019-05-12T23:13:14.200Z,4.95
2019-05-12T23:15:45.204Z,3.87
2019-05-12T23:18:13.667Z,3.33
2019-05-12T23:20:43.901Z,3.62
2019-05-12T23:23:15.362Z,8.98
2019-05-12T23:25:44.147Z,5.55
2019-05-12T23:28:13.168Z,3.33
2019-05-12T23:30:43.824Z,7.10
2019-05-12T23:33:14.110Z,5.50
2019-05-12T23:35:44.371Z,4.62
2019-05-12T23:38:18.823Z,4.10
2019-05-12T23:40:43.904Z,3.35
2019-05-12T23:43:14.541Z,3.95
2019-05-12T23:45:44.458Z,7.47
2019-05-12T23:48:14.407Z,7.72
2019-05-12T23:50:43.838Z,3.87
2019-05-12T23:53:14.006Z,4.03
2019-05-12T23:55:43.782Z,3.20
2019-05-12T23:58:14.406Z,9.03
